Time;durP1;ratioP1;P1;durP2;ratioP2;P2;SDS_P1;SDS_P2;PMS_P1;PMS_P2;Temp;Humidity;BMP_temperature;BMP_pressure;BME280_temperature;BME280_humidity;BME280_pressure;Samples;Min_cycle;Max_cycle;Signal;HPM_P1;HPM_P2
2022/01/27 00:05:27;;;;;;;52.97;22.52;;;0.10;99.90;;;;;;5025360;28;20516;-68
2022/01/27 00:13:01;;;;;;;47.92;21.23;;;0.00;99.90;;;;;;5026555;28;20048;-72
2022/01/27 00:15:32;;;;;;;54.42;21.23;;;0.00;99.90;;;;;;5026986;28;20033;-71
2022/01/27 00:18:02;;;;;;;52.70;22.08;;;0.00;99.90;;;;;;5023733;28;20108;-70
2022/01/27 00:20:28;;;;;;;53.47;22.27;;;0.00;99.90;;;;;;5023414;28;20033;-71
2022/01/27 00:22:54;;;;;;;54.33;22.52;;;0.00;99.90;;;;;;5021314;28;20029;-71
2022/01/27 00:25:20;;;;;;;48.67;21.27;;;0.00;99.90;;;;;;5026238;28;20028;-70
2022/01/27 00:27:46;;;;;;;47.88;20.73;;;0.00;99.90;;;;;;5021468;28;20112;-71
2022/01/27 00:30:13;;;;;;;47.78;21.02;;;0.00;99.90;;;;;;5024198;28;20018;-71
2022/01/27 00:32:38;;;;;;;49.65;20.80;;;0.00;99.90;;;;;;5020563;28;20025;-70
2022/01/27 00:35:05;;;;;;;53.58;23.08;;;0.00;99.90;;;;;;5037964;28;20470;-71
2022/01/27 00:37:31;;;;;;;47.95;22.25;;;0.00;99.90;;;;;;5022004;28;20040;-70
2022/01/27 00:39:57;;;;;;;50.22;22.45;;;0.00;99.90;;;;;;5025063;28;20029;-71
2022/01/27 00:42:24;;;;;;;50.35;20.90;;;0.00;99.90;;;;;;5018666;28;20172;-70
2022/01/27 00:44:50;;;;;;;54.28;23.35;;;0.00;99.90;;;;;;5023602;28;20017;-71
2022/01/27 00:47:16;;;;;;;50.00;22.10;;;0.00;99.90;;;;;;5023368;28;20038;-71
2022/01/27 00:49:42;;;;;;;49.40;21.20;;;0.00;99.90;;;;;;5023451;28;20694;-71
2022/01/27 00:52:13;;;;;;;51.03;22.95;;;0.00;99.90;;;;;;5016479;28;20018;-71
2022/01/27 00:54:39;;;;;;;53.10;21.77;;;-0.10;99.90;;;;;;5021755;28;20450;-71
2022/01/27 00:59:54;;;;;;;54.55;23.90;;;0.00;99.90;;;;;;5021636;28;20136;-72
2022/01/27 01:05:01;;;;;;;50.78;22.30;;;0.00;99.90;;;;;;5021970;28;20113;-71
2022/01/27 01:07:31;;;;;;;47.45;21.40;;;0.00;99.90;;;;;;5025806;28;20109;-71
2022/01/27 01:14:57;;;;;;;54.33;23.50;;;0.00;99.90;;;;;;5017326;28;20390;-72
2022/01/27 01:17:36;;;;;;;45.97;21.52;;;0.00;99.90;;;;;;5022127;28;20474;-70
2022/01/27 01:33:13;;;;;;;50.08;21.95;;;-0.20;99.90;;;;;;5027788;28;20032;-73
2022/01/27 01:35:50;;;;;;;54.45;23.65;;;-0.20;99.90;;;;;;5024090;28;20104;-71
2022/01/27 01:38:22;;;;;;;51.92;21.70;;;-0.20;99.90;;;;;;5023149;28;20517;-70
2022/01/27 01:40:52;;;;;;;46.90;21.65;;;-0.20;99.90;;;;;;5022479;28;20171;-70
2022/01/27 01:43:20;;;;;;;60.28;22.90;;;-0.20;99.90;;;;;;5025310;28;20022;-71
2022/01/27 01:45:49;;;;;;;51.83;21.25;;;-0.20;99.90;;;;;;5034744;28;20056;-71
2022/01/27 01:48:16;;;;;;;46.85;21.27;;;-0.20;99.90;;;;;;5028793;28;20041;-71
2022/01/27 01:50:43;;;;;;;49.47;20.95;;;-0.30;99.90;;;;;;5028274;28;20021;-72
2022/01/27 01:53:09;;;;;;;54.22;24.05;;;-0.30;99.90;;;;;;5028333;28;20029;-72
2022/01/27 01:55:35;;;;;;;51.22;21.13;;;-0.30;99.90;;;;;;5040128;28;20462;-72
2022/01/27 01:58:01;;;;;;;50.95;23.58;;;-0.30;99.90;;;;;;5031797;28;20075;-71
2022/01/27 02:00:27;;;;;;;49.72;22.92;;;-0.40;99.90;;;;;;5041932;28;20116;-71
2022/01/27 02:02:54;;;;;;;46.55;21.55;;;-0.40;99.90;;;;;;5027483;28;20187;-70
2022/01/27 02:05:23;;;;;;;52.15;21.65;;;-0.50;99.90;;;;;;5030072;28;20544;-71
2022/01/27 02:19:14;;;;;;;54.28;21.63;;;-0.60;99.90;;;;;;5028072;28;20144;-71
2022/01/27 02:21:48;;;;;;;49.97;21.58;;;-0.50;99.90;;;;;;5025512;28;20458;-72
2022/01/27 02:24:16;;;;;;;46.40;20.65;;;-0.50;99.90;;;;;;5042382;28;20029;-71
2022/01/27 02:26:42;;;;;;;55.97;22.63;;;-0.50;99.90;;;;;;5030970;28;20055;-70
2022/01/27 02:29:08;;;;;;;51.30;22.67;;;-0.50;99.90;;;;;;5032190;28;20025;-71
2022/01/27 02:31:35;;;;;;;46.67;21.52;;;-0.50;99.90;;;;;;5029104;28;20028;-71
2022/01/27 02:34:01;;;;;;;49.38;20.50;;;-0.50;99.90;;;;;;5027320;28;20025;-70
2022/01/27 02:36:27;;;;;;;49.53;21.15;;;-0.50;99.90;;;;;;5024205;28;20056;-70
2022/01/27 02:38:54;;;;;;;50.08;21.63;;;-0.60;99.90;;;;;;5031209;28;20029;-71
2022/01/27 02:41:22;;;;;;;47.75;20.15;;;-0.70;99.90;;;;;;5026879;28;20508;-71
2022/01/27 02:43:48;;;;;;;51.08;20.88;;;-0.80;99.90;;;;;;5027962;28;20028;-71
2022/01/27 02:46:25;;;;;;;50.70;21.38;;;-0.80;99.90;;;;;;5031637;28;20021;-73
2022/01/27 02:48:50;;;;;;;47.38;20.30;;;-0.80;99.90;;;;;;5045349;28;20236;-72
2022/01/27 02:51:16;;;;;;;54.63;21.73;;;-0.80;99.90;;;;;;5043492;28;20030;-72
2022/01/27 02:53:42;;;;;;;53.03;21.20;;;-0.80;99.90;;;;;;5027544;28;20034;-70
2022/01/27 02:56:08;;;;;;;48.80;21.05;;;-0.80;99.90;;;;;;5040400;28;20079;-71
2022/01/27 02:58:34;;;;;;;52.17;22.45;;;-0.80;99.90;;;;;;5029431;28;20559;-71
2022/01/27 03:01:00;;;;;;;52.33;22.45;;;-0.80;99.90;;;;;;5027082;28;20071;-71
2022/01/27 03:03:25;;;;;;;52.30;22.73;;;-0.80;99.90;;;;;;5031451;28;20147;-71
2022/01/27 03:05:51;;;;;;;57.30;22.92;;;-0.70;99.90;;;;;;5029611;28;20022;-71
2022/01/27 03:08:16;;;;;;;47.85;19.75;;;-0.70;99.90;;;;;;5030266;28;20108;-70
2022/01/27 03:10:55;;;;;;;52.22;21.98;;;-0.70;99.90;;;;;;5028367;28;20017;-71
2022/01/27 03:13:20;;;;;;;48.92;20.20;;;-0.70;99.90;;;;;;5028840;28;20028;-71
2022/01/27 03:15:46;;;;;;;53.72;21.42;;;-0.70;99.90;;;;;;5030487;28;20399;-72
2022/01/27 03:18:11;;;;;;;50.90;20.15;;;-0.70;99.90;;;;;;5030985;28;20419;-71
2022/01/27 03:20:39;;;;;;;51.78;20.73;;;-0.70;99.90;;;;;;5042530;28;20026;-71
2022/01/27 03:23:06;;;;;;;51.88;21.50;;;-0.70;99.90;;;;;;5025696;28;21325;-71
2022/01/27 03:25:32;;;;;;;54.05;22.23;;;-0.80;99.90;;;;;;5029221;28;20014;-71
2022/01/27 03:27:59;;;;;;;45.65;20.13;;;-0.80;99.90;;;;;;5027756;28;20025;-71
2022/01/27 03:30:25;;;;;;;53.58;21.73;;;-0.90;99.90;;;;;;5027811;28;20516;-71
2022/01/27 03:32:50;;;;;;;52.03;23.00;;;-0.90;99.90;;;;;;5026792;28;20049;-71
2022/01/27 03:35:16;;;;;;;48.97;21.67;;;-1.00;99.90;;;;;;5044760;28;20217;-71
2022/01/27 03:37:42;;;;;;;55.15;22.08;;;-0.90;99.90;;;;;;5029091;28;20079;-72
2022/01/27 03:40:08;;;;;;;48.83;20.38;;;-0.90;99.90;;;;;;5025927;28;20080;-72
2022/01/27 03:42:42;;;;;;;56.22;23.10;;;-1.00;99.90;;;;;;5029457;28;20029;-71
2022/01/27 03:45:08;;;;;;;58.65;21.58;;;-1.00;99.90;;;;;;5025599;28;20077;-70
2022/01/27 03:47:34;;;;;;;50.72;21.83;;;-1.10;99.90;;;;;;5025565;28;20398;-70
2022/01/27 03:50:00;;;;;;;54.58;21.65;;;-1.00;99.90;;;;;;5021103;28;20057;-71
2022/01/27 03:52:25;;;;;;;48.03;22.23;;;-1.10;99.90;;;;;;5022991;28;20028;-71
2022/01/27 03:54:51;;;;;;;56.47;24.30;;;-1.10;99.90;;;;;;5029334;28;20113;-70
2022/01/27 03:57:16;;;;;;;50.65;21.92;;;-1.10;99.90;;;;;;5043396;28;20025;-70
2022/01/27 03:59:42;;;;;;;50.30;20.17;;;-1.10;99.90;;;;;;5028003;28;20033;-70
2022/01/27 04:02:08;;;;;;;48.25;20.20;;;-1.00;99.90;;;;;;5025886;28;20130;-70
2022/01/27 04:04:34;;;;;;;46.15;21.10;;;-1.00;99.90;;;;;;5026896;28;20150;-70
2022/01/27 04:07:02;;;;;;;49.85;20.55;;;-1.00;99.90;;;;;;5028022;28;20061;-71
2022/01/27 04:09:28;;;;;;;47.63;20.88;;;-1.00;99.90;;;;;;5028388;28;20025;-71
2022/01/27 04:11:54;;;;;;;54.38;23.42;;;-1.00;99.90;;;;;;5026063;28;20644;-70
2022/01/27 04:14:19;;;;;;;49.80;21.90;;;-1.00;99.90;;;;;;5024374;28;20124;-70
2022/01/27 04:16:45;;;;;;;47.05;20.58;;;-1.00;99.90;;;;;;5023153;28;20144;-70
2022/01/27 04:19:11;;;;;;;44.78;19.52;;;-1.00;99.90;;;;;;5026117;28;20489;-70
2022/01/27 04:21:37;;;;;;;45.67;19.42;;;-1.00;99.90;;;;;;5021392;28;20108;-72
2022/01/27 04:24:04;;;;;;;44.83;19.55;;;-1.00;99.90;;;;;;5027121;28;20033;-71
2022/01/27 04:26:41;;;;;;;45.63;20.00;;;-1.10;99.90;;;;;;5028430;28;20032;-70
2022/01/27 04:29:07;;;;;;;50.65;21.50;;;-1.10;99.90;;;;;;5029299;28;20025;-70
2022/01/27 04:31:33;;;;;;;51.53;20.48;;;-1.10;99.90;;;;;;5030815;28;20083;-70
2022/01/27 04:33:59;;;;;;;51.97;21.65;;;-1.10;99.90;;;;;;5029086;28;20061;-70
2022/01/27 04:36:33;;;;;;;44.53;19.85;;;-1.10;99.90;;;;;;5027125;28;20026;-72
2022/01/27 04:41:37;;;;;;;50.65;21.67;;;-1.10;99.90;;;;;;5027998;28;20063;-70
2022/01/27 04:46:49;;;;;;;47.47;19.80;;;-1.20;99.90;;;;;;5027633;28;20029;-71
2022/01/27 04:49:15;;;;;;;47.28;19.45;;;-1.30;99.90;;;;;;5025877;28;20034;-69
2022/01/27 04:51:40;;;;;;;45.10;20.25;;;-1.30;99.90;;;;;;5027208;28;20026;-69
2022/01/27 04:54:22;;;;;;;52.08;19.55;;;-1.50;99.90;;;;;;5029441;28;20375;-69
2022/01/27 04:56:48;;;;;;;51.67;21.50;;;-1.50;99.90;;;;;;5028497;28;20075;-72
2022/01/27 04:59:24;;;;;;;45.53;18.65;;;-1.50;99.90;;;;;;5027091;28;20022;-70
2022/01/27 05:02:04;;;;;;;50.47;21.70;;;-1.50;99.90;;;;;;5029266;28;20140;-70
2022/01/27 05:04:34;;;;;;;43.75;18.83;;;-1.60;99.90;;;;;;5026140;28;20159;-71
2022/01/27 05:06:59;;;;;;;39.92;16.40;;;-1.70;99.90;;;;;;5030824;28;20041;-71
2022/01/27 05:09:25;;;;;;;39.63;17.40;;;-1.70;99.90;;;;;;5027805;28;20038;-70
2022/01/27 05:11:59;;;;;;;35.80;15.75;;;-1.70;99.90;;;;;;5025157;28;20467;-70
2022/01/27 05:14:26;;;;;;;40.13;17.20;;;-1.80;99.90;;;;;;5027567;28;20029;-70
2022/01/27 05:16:53;;;;;;;40.00;15.52;;;-1.80;99.90;;;;;;5029114;28;20036;-70
2022/01/27 05:19:19;;;;;;;38.60;16.88;;;-1.90;99.90;;;;;;5027647;28;20478;-70
2022/01/27 05:21:45;;;;;;;38.47;16.60;;;-1.90;99.90;;;;;;5025428;28;20471;-73
2022/01/27 05:24:11;;;;;;;39.97;16.40;;;-1.90;99.90;;;;;;5028047;28;20116;-71
2022/01/27 05:26:38;;;;;;;38.60;16.35;;;-1.90;99.90;;;;;;5030501;28;20390;-71
2022/01/27 05:29:04;;;;;;;37.50;15.65;;;-2.00;99.90;;;;;;5023699;28;20025;-72
2022/01/27 05:31:33;;;;;;;34.22;16.15;;;-2.10;99.90;;;;;;5037198;28;20104;-71
2022/01/27 05:33:59;;;;;;;33.92;15.23;;;-2.10;99.90;;;;;;5026481;28;20045;-70
2022/01/27 05:36:24;;;;;;;37.10;15.00;;;-2.10;99.90;;;;;;5028066;28;20061;-71
2022/01/27 05:38:50;;;;;;;39.08;15.55;;;-2.10;99.90;;;;;;5026147;28;20079;-70
2022/01/27 05:41:16;;;;;;;38.83;15.45;;;-2.20;99.90;;;;;;5039709;28;20141;-70
2022/01/27 05:43:43;;;;;;;41.88;17.67;;;-2.20;99.90;;;;;;5022472;28;20117;-70
2022/01/27 05:46:09;;;;;;;46.00;18.23;;;-2.20;99.90;;;;;;5029186;28;20032;-71
2022/01/27 05:48:34;;;;;;;42.55;19.00;;;-2.20;99.90;;;;;;5044108;28;20026;-71
2022/01/27 05:51:00;;;;;;;49.67;20.25;;;-2.20;99.90;;;;;;5024663;28;20152;-70
2022/01/27 05:53:26;;;;;;;50.08;20.98;;;-2.20;99.90;;;;;;5026938;28;20037;-71
2022/01/27 05:55:52;;;;;;;45.55;18.05;;;-2.20;99.90;;;;;;5018545;28;20030;-70
2022/01/27 05:58:20;;;;;;;46.83;18.95;;;-2.30;99.90;;;;;;5023902;28;20026;-70
2022/01/27 06:00:49;;;;;;;48.90;20.23;;;-2.30;99.90;;;;;;5024520;28;20033;-70
2022/01/27 06:03:15;;;;;;;48.60;19.02;;;-2.30;99.90;;;;;;5026721;28;20048;-71
2022/01/27 06:05:41;;;;;;;45.28;18.67;;;-2.30;99.90;;;;;;5029604;28;20108;-72
2022/01/27 06:08:06;;;;;;;50.03;19.83;;;-2.30;99.90;;;;;;5070478;23;20393;-72
2022/01/27 06:10:32;;;;;;;49.50;19.42;;;-2.30;99.90;;;;;;5046817;28;20440;-64
2022/01/27 06:12:58;;;;;;;48.70;19.48;;;-2.20;99.90;;;;;;5045509;28;20025;-65
2022/01/27 06:15:25;;;;;;;42.55;17.23;;;-2.10;99.90;;;;;;5031732;28;20124;-64
2022/01/27 06:17:50;;;;;;;39.45;17.10;;;-2.00;99.90;;;;;;5049655;28;20033;-72
2022/01/27 06:20:18;;;;;;;41.53;16.98;;;-2.00;99.90;;;;;;5048612;28;20021;-72
2022/01/27 06:22:43;;;;;;;41.53;16.25;;;-1.90;99.90;;;;;;5049419;28;20036;-71
2022/01/27 06:25:11;;;;;;;45.63;17.73;;;-2.00;99.90;;;;;;5050331;28;20026;-71
2022/01/27 06:27:37;;;;;;;46.65;17.65;;;-2.00;99.90;;;;;;5048392;28;20389;-71
2022/01/27 06:30:05;;;;;;;42.30;18.60;;;-2.00;99.90;;;;;;5048958;28;20025;-72
2022/01/27 06:32:31;;;;;;;50.33;20.15;;;-2.10;99.90;;;;;;5046938;28;20104;-72
2022/01/27 06:34:57;;;;;;;45.83;18.52;;;-2.10;99.90;;;;;;5045541;28;20482;-72
2022/01/27 06:37:23;;;;;;;41.90;18.55;;;-2.10;99.90;;;;;;5066243;28;20052;-72
2022/01/27 06:39:49;;;;;;;45.97;18.85;;;-2.20;99.90;;;;;;5064773;28;20067;-72
2022/01/27 06:42:14;;;;;;;37.58;17.08;;;-2.20;99.90;;;;;;5046135;28;20515;-71
2022/01/27 06:44:40;;;;;;;42.25;18.13;;;-2.20;99.90;;;;;;5050178;28;20032;-71
2022/01/27 06:47:06;;;;;;;47.72;19.17;;;-2.20;99.90;;;;;;5050349;28;20056;-71
2022/01/27 06:49:31;;;;;;;42.25;18.08;;;-2.30;99.90;;;;;;5049522;28;20079;-71
2022/01/27 06:51:57;;;;;;;40.28;17.63;;;-2.30;99.90;;;;;;5050003;28;20033;-72
2022/01/27 06:54:23;;;;;;;43.58;18.73;;;-2.40;99.90;;;;;;5044671;28;20041;-75
2022/01/27 06:56:48;;;;;;;46.85;18.80;;;-2.40;99.90;;;;;;5046800;28;20025;-72
2022/01/27 06:59:14;;;;;;;47.45;18.33;;;-2.40;99.90;;;;;;5050201;28;20079;-71
2022/01/27 07:01:40;;;;;;;49.88;19.52;;;-2.40;99.90;;;;;;5049156;28;20720;-71
2022/01/27 07:04:06;;;;;;;42.53;18.48;;;-2.40;99.90;;;;;;5045555;28;20112;-71
2022/01/27 07:06:35;;;;;;;43.63;19.13;;;-2.40;99.90;;;;;;5046140;28;20425;-71
2022/01/27 07:09:01;;;;;;;43.58;17.00;;;-2.30;99.90;;;;;;5047823;28;20032;-71
2022/01/27 07:11:28;;;;;;;48.20;20.60;;;-2.40;99.90;;;;;;5063079;28;20029;-72
2022/01/27 07:13:53;;;;;;;42.40;18.25;;;-2.40;99.90;;;;;;5046273;28;20040;-71
2022/01/27 07:16:19;;;;;;;42.40;18.55;;;-2.30;99.90;;;;;;5044586;28;20437;-73
2022/01/27 07:18:45;;;;;;;44.00;19.42;;;-2.30;99.90;;;;;;5049489;28;20075;-73
2022/01/27 07:21:10;;;;;;;45.13;19.35;;;-2.30;99.90;;;;;;5051303;28;20033;-74
2022/01/27 07:23:36;;;;;;;45.80;19.58;;;-2.30;99.90;;;;;;5043691;28;20021;-74
2022/01/27 07:26:03;;;;;;;42.15;18.70;;;-2.30;99.90;;;;;;5048722;28;20063;-72
2022/01/27 07:28:28;;;;;;;41.83;18.20;;;-2.20;99.90;;;;;;5050792;28;20024;-73
2022/01/27 07:30:54;;;;;;;43.45;19.10;;;-2.20;99.90;;;;;;5045280;28;20024;-72
2022/01/27 07:33:20;;;;;;;40.05;17.20;;;-2.10;99.90;;;;;;5047978;28;20055;-72
2022/01/27 07:35:45;;;;;;;42.65;18.38;;;-2.10;99.90;;;;;;5048192;28;20474;-71
2022/01/27 07:38:11;;;;;;;41.42;17.02;;;-2.00;99.90;;;;;;5041241;28;20115;-73
2022/01/27 07:40:37;;;;;;;48.15;19.50;;;-2.10;99.90;;;;;;5062750;28;20052;-71
2022/01/27 07:43:02;;;;;;;45.70;18.92;;;-2.00;99.90;;;;;;5043840;28;20154;-71
2022/01/27 07:45:28;;;;;;;49.58;19.25;;;-2.00;99.90;;;;;;5043523;28;20032;-72
2022/01/27 07:47:55;;;;;;;47.03;20.17;;;-2.00;99.90;;;;;;5043658;28;20025;-72
2022/01/27 07:50:22;;;;;;;51.00;19.65;;;-1.90;99.90;;;;;;5047895;28;20115;-72
2022/01/27 07:52:47;;;;;;;50.17;20.35;;;-2.00;99.90;;;;;;5063022;28;20025;-72
2022/01/27 07:55:13;;;;;;;48.83;20.42;;;-2.00;99.90;;;;;;5044793;28;20447;-72
2022/01/27 07:57:39;;;;;;;43.45;18.42;;;-1.90;99.90;;;;;;5062361;28;20052;-72
2022/01/27 08:00:07;;;;;;;44.55;19.25;;;-1.90;99.90;;;;;;5040452;28;20111;-71
2022/01/27 08:02:32;;;;;;;45.25;18.60;;;-1.90;99.90;;;;;;5042959;28;20098;-71
2022/01/27 08:04:58;;;;;;;45.40;20.30;;;-1.90;99.90;;;;;;5040410;28;20537;-72
2022/01/27 08:07:24;;;;;;;42.70;19.35;;;-1.90;99.90;;;;;;5043870;28;20029;-73
2022/01/27 08:09:49;;;;;;;48.53;20.77;;;-1.80;99.90;;;;;;5043434;28;20025;-73
2022/01/27 08:12:15;;;;;;;49.42;19.60;;;-1.80;99.90;;;;;;5064365;28;20028;-72
2022/01/27 08:14:41;;;;;;;43.88;18.55;;;-1.80;99.90;;;;;;5044411;28;20111;-71
2022/01/27 08:17:08;;;;;;;43.30;18.25;;;-1.80;99.90;;;;;;5043571;28;20029;-71
2022/01/27 08:19:33;;;;;;;40.83;19.60;;;-1.80;99.90;;;;;;5045816;28;20075;-72
2022/01/27 08:21:59;;;;;;;40.08;19.13;;;-1.80;99.90;;;;;;5041033;28;20582;-72
2022/01/27 08:24:28;;;;;;;42.70;19.63;;;-1.80;99.90;;;;;;5044920;28;20025;-71
2022/01/27 08:27:00;;;;;;;45.30;18.75;;;-1.60;99.90;;;;;;5042324;28;20021;-71
2022/01/27 08:29:33;;;;;;;42.30;19.48;;;-1.60;99.90;;;;;;5042937;28;20385;-71
2022/01/27 08:32:02;;;;;;;53.78;20.55;;;-1.60;99.90;;;;;;5048135;28;20393;-71
2022/01/27 08:34:36;;;;;;;42.72;19.02;;;-1.50;99.90;;;;;;5063874;28;20064;-71
2022/01/27 08:37:14;;;;;;;38.50;18.35;;;-1.50;99.90;;;;;;5049149;28;20032;-71
2022/01/27 08:39:40;;;;;;;42.28;19.35;;;-1.50;99.90;;;;;;5047844;28;20041;-72
2022/01/27 08:42:07;;;;;;;41.85;19.95;;;-1.40;99.90;;;;;;5063744;28;20025;-71
2022/01/27 08:44:33;;;;;;;42.97;19.70;;;-1.40;99.90;;;;;;5047447;28;20036;-71
2022/01/27 08:47:00;;;;;;;45.80;19.10;;;-1.40;99.90;;;;;;5047139;28;20021;-71
2022/01/27 08:49:27;;;;;;;41.00;18.50;;;-1.30;99.90;;;;;;5039358;28;20037;-72
2022/01/27 08:51:54;;;;;;;44.13;19.45;;;-1.20;99.90;;;;;;5042387;28;20116;-71
2022/01/27 08:54:19;;;;;;;46.72;20.02;;;-1.20;99.90;;;;;;5045409;28;20471;-72
2022/01/27 08:56:45;;;;;;;47.67;19.98;;;-1.10;99.90;;;;;;5042415;28;20120;-72
2022/01/27 08:59:11;;;;;;;41.85;19.52;;;-1.00;99.90;;;;;;5044559;28;20403;-71
2022/01/27 09:01:38;;;;;;;50.38;19.85;;;-1.00;99.90;;;;;;5046912;28;20033;-72
2022/01/27 09:04:04;;;;;;;43.58;20.08;;;-0.80;99.90;;;;;;5060156;28;20036;-71
2022/01/27 09:06:30;;;;;;;51.15;22.52;;;-0.70;99.90;;;;;;5042181;28;20024;-71
2022/01/27 09:08:57;;;;;;;42.38;18.02;;;-0.70;99.90;;;;;;5057078;28;20462;-72
2022/01/27 09:11:23;;;;;;;44.53;19.08;;;-0.70;99.90;;;;;;5059606;28;20040;-72
2022/01/27 09:13:50;;;;;;;41.42;18.35;;;-0.60;99.90;;;;;;5065816;28;20025;-72
2022/01/27 09:16:16;;;;;;;47.53;20.00;;;-0.60;99.90;;;;;;5042651;28;20025;-72
2022/01/27 09:18:42;;;;;;;45.92;18.52;;;-0.50;99.90;;;;;;5047527;28;20116;-71
2022/01/27 09:21:14;;;;;;;43.78;19.58;;;-0.40;99.90;;;;;;5047405;28;20178;-72
2022/01/27 09:23:40;;;;;;;44.47;19.30;;;-0.40;99.90;;;;;;5045805;28;20071;-72
2022/01/27 09:26:09;;;;;;;39.72;18.83;;;-0.30;99.90;;;;;;5046166;28;20045;-71
2022/01/27 09:28:36;;;;;;;48.40;19.45;;;-0.30;99.90;;;;;;5061381;28;20500;-73
2022/01/27 09:31:02;;;;;;;41.75;18.77;;;-0.30;99.90;;;;;;5045241;28;20029;-73
2022/01/27 09:33:28;;;;;;;41.10;17.92;;;-0.40;99.90;;;;;;5046136;28;20052;-73
2022/01/27 09:35:54;;;;;;;44.03;19.13;;;-0.40;99.90;;;;;;5048339;28;20063;-73
2022/01/27 09:38:20;;;;;;;48.25;19.83;;;-0.30;99.90;;;;;;5052557;28;20067;-71
2022/01/27 09:40:50;;;;;;;42.95;18.70;;;-0.30;99.90;;;;;;5049229;28;20033;-73
2022/01/27 09:43:16;;;;;;;46.05;20.13;;;-0.50;99.90;;;;;;5051988;28;20029;-72
2022/01/27 09:45:42;;;;;;;43.83;18.98;;;-0.60;99.90;;;;;;5051618;28;20048;-72
2022/01/27 09:48:16;;;;;;;43.05;19.50;;;-0.70;99.90;;;;;;5050819;28;20031;-72
2022/01/27 09:53:13;;;;;;;43.30;18.83;;;-0.60;99.90;;;;;;5052269;28;20124;-71
2022/01/27 09:55:39;;;;;;;49.80;19.45;;;-0.60;99.90;;;;;;5051478;28;20029;-71
2022/01/27 09:58:08;;;;;;;41.38;18.02;;;-0.50;99.90;;;;;;5051834;28;20033;-72
2022/01/27 10:00:34;;;;;;;41.25;18.55;;;-0.50;99.90;;;;;;5052052;28;20037;-73
2022/01/27 10:03:05;;;;;;;47.70;19.60;;;-0.50;99.90;;;;;;5048973;28;20087;-71
2022/01/27 10:05:32;;;;;;;41.10;18.90;;;-0.40;99.90;;;;;;5048329;28;20460;-71
2022/01/27 10:08:09;;;;;;;41.35;18.67;;;-0.20;99.90;;;;;;5049980;28;20103;-70
2022/01/27 10:10:43;;;;;;;42.92;18.83;;;-0.20;99.90;;;;;;5049280;28;20048;-72
2022/01/27 10:13:11;;;;;;;44.58;18.00;;;-0.10;99.90;;;;;;5050581;28;20025;-76
2022/01/27 10:15:41;;;;;;;38.67;16.58;;;0.00;99.90;;;;;;5064839;28;20147;-73
2022/01/27 10:18:09;;;;;;;41.28;17.08;;;0.10;99.90;;;;;;5049162;28;20017;-72
2022/01/27 10:20:37;;;;;;;38.22;17.20;;;0.20;99.90;;;;;;5051895;28;21209;-71
2022/01/27 10:23:23;;;;;;;38.90;17.17;;;0.20;99.90;;;;;;5050532;28;20083;-72
2022/01/27 10:25:53;;;;;;;40.95;18.27;;;0.20;99.90;;;;;;5064141;28;20024;-72
2022/01/27 10:31:19;;;;;;;40.95;17.08;;;0.30;99.90;;;;;;5049556;28;20067;-72
2022/01/27 10:33:51;;;;;;;38.30;16.65;;;0.20;99.90;;;;;;5049456;28;20067;-71
2022/01/27 10:36:19;;;;;;;42.05;17.35;;;0.30;99.90;;;;;;5051085;28;20033;-72
2022/01/27 10:38:44;;;;;;;38.10;15.95;;;0.20;99.90;;;;;;5050520;28;20033;-71
2022/01/27 10:41:10;;;;;;;41.08;17.38;;;0.10;99.90;;;;;;5048072;28;20044;-71
2022/01/27 10:43:36;;;;;;;36.05;16.05;;;0.10;99.90;;;;;;5049118;28;20040;-71
2022/01/27 10:46:16;;;;;;;41.45;17.45;;;0.20;99.90;;;;;;5042848;28;20563;-71
2022/01/27 10:48:52;;;;;;;41.28;16.88;;;0.10;99.90;;;;;;5046700;28;20111;-71
2022/01/27 10:51:24;;;;;;;37.20;16.55;;;0.20;99.90;;;;;;5049195;28;20025;-72
2022/01/27 10:54:06;;;;;;;40.17;17.58;;;0.20;99.90;;;;;;5048560;28;20025;-70
2022/01/27 10:56:34;;;;;;;40.88;17.55;;;0.20;99.90;;;;;;5051521;28;20029;-75
2022/01/27 10:59:10;;;;;;;42.72;17.27;;;0.30;99.90;;;;;;5047798;28;20116;-71
2022/01/27 11:01:40;;;;;;;37.05;17.02;;;0.20;99.90;;;;;;5051895;28;20040;-71
2022/01/27 11:04:08;;;;;;;42.17;17.55;;;0.20;99.90;;;;;;5053281;28;20033;-71
2022/01/27 11:06:35;;;;;;;37.15;15.68;;;0.30;99.90;;;;;;5069604;28;20032;-70
2022/01/27 11:09:10;;;;;;;36.97;16.58;;;0.20;99.90;;;;;;5053934;28;20103;-72
2022/01/27 11:11:39;;;;;;;36.53;16.42;;;0.30;99.90;;;;;;5050073;28;20074;-72
2022/01/27 11:14:05;;;;;;;36.90;15.80;;;0.30;99.90;;;;;;5050480;28;20029;-71
2022/01/27 11:16:38;;;;;;;40.65;16.42;;;0.40;99.90;;;;;;5046139;28;20036;-72
2022/01/27 11:19:18;;;;;;;38.15;15.63;;;0.40;99.90;;;;;;5056831;28;20380;-71
2022/01/27 11:21:52;;;;;;;38.03;15.55;;;0.60;99.90;;;;;;5066261;28;20028;-71
2022/01/27 11:24:30;;;;;;;35.63;16.10;;;0.80;99.90;;;;;;5064067;28;20025;-71
2022/01/27 11:27:00;;;;;;;35.10;15.82;;;1.00;99.90;;;;;;5048496;28;20051;-71
2022/01/27 11:29:27;;;;;;;32.03;14.95;;;1.10;99.90;;;;;;5041451;28;20021;-72
2022/01/27 11:32:34;;;;;;;34.38;14.98;;;1.30;99.90;;;;;;5057210;28;20052;-71
2022/01/27 11:35:00;;;;;;;35.28;14.90;;;1.40;99.90;;;;;;5047022;28;20532;-70
2022/01/27 11:37:37;;;;;;;37.22;15.57;;;1.50;99.90;;;;;;5050605;28;20040;-70
2022/01/27 11:40:11;;;;;;;35.53;15.80;;;1.60;99.90;;;;;;5048915;28;20025;-71
2022/01/27 11:42:37;;;;;;;;;;;1.80;99.90;;;;;;5047558;28;20044;-70
2022/01/27 11:45:21;;;;;;;36.25;14.40;;;2.00;99.90;;;;;;5052271;28;19908;-71
2022/01/27 11:48:10;;;;;;;30.58;14.65;;;2.10;99.90;;;;;;5049347;28;20025;-72
2022/01/27 11:50:58;;;;;;;35.33;15.10;;;2.30;99.90;;;;;;5050671;28;20419;-70
2022/01/27 11:53:32;;;;;;;30.83;13.95;;;2.40;99.90;;;;;;5048853;28;20017;-73
2022/01/27 11:56:00;;;;;;;39.83;14.18;;;2.40;99.90;;;;;;5052780;28;20016;-73
2022/01/27 11:58:26;;;;;;;35.30;15.02;;;2.50;99.90;;;;;;5050801;28;20028;-73
2022/01/27 12:01:15;;;;;;;34.00;15.60;;;2.60;99.90;;;;;;5052672;28;20481;-73
2022/01/27 12:04:06;;;;;;;33.53;15.23;;;2.70;99.90;;;;;;5050599;28;20033;-72
2022/01/27 12:06:41;;;;;;;32.38;15.32;;;2.80;99.90;;;;;;5050053;28;20022;-72
2022/01/27 12:09:21;;;;;;;33.58;15.18;;;2.90;99.90;;;;;;5053164;28;20025;-71
2022/01/27 12:12:00;;;;;;;35.00;13.90;;;3.00;99.90;;;;;;5052797;28;20024;-74
2022/01/27 12:14:31;;;;;;;34.78;14.27;;;3.10;99.90;;;;;;5052794;28;20021;-74
2022/01/27 12:17:08;;;;;;;32.88;15.05;;;3.10;99.90;;;;;;5052880;28;20370;-71
2022/01/27 12:19:54;;;;;;;27.63;12.02;;;3.30;99.90;;;;;;5052684;28;20021;-71
2022/01/27 12:22:27;;;;;;;27.80;12.68;;;3.30;99.90;;;;;;5053066;28;20418;-73
2022/01/27 12:24:56;;;;;;;34.72;13.35;;;3.40;99.90;;;;;;5052935;28;20036;-71
2022/01/27 12:27:23;;;;;;;30.48;12.65;;;3.40;99.90;;;;;;5068133;28;20112;-70
2022/01/27 12:29:51;;;;;;;28.85;11.93;;;3.50;99.90;;;;;;5053043;28;20013;-71
2022/01/27 12:32:20;;;;;;;25.20;11.68;;;3.60;99.90;;;;;;5053028;28;20082;-73
2022/01/27 12:34:55;;;;;;;25.13;10.77;;;3.60;99.90;;;;;;5068364;28;20021;-70
2022/01/27 12:37:23;;;;;;;23.33;10.82;;;3.70;99.90;;;;;;5053093;28;20078;-75
2022/01/27 12:39:54;;;;;;;22.00;9.45;;;3.60;99.90;;;;;;5068744;28;20032;-72
2022/01/27 12:42:25;;;;;;;25.13;10.52;;;3.60;99.90;;;;;;5053147;28;20025;-72
2022/01/27 12:44:58;;;;;;;21.45;9.77;;;3.50;99.90;;;;;;5052929;28;20477;-73
2022/01/27 12:47:27;;;;;;;19.90;9.15;;;3.50;99.90;;;;;;5052832;28;20060;-71
2022/01/27 12:50:05;;;;;;;21.30;9.00;;;3.50;99.90;;;;;;5053169;28;20025;-73
2022/01/27 12:52:38;;;;;;;20.63;8.00;;;3.60;99.90;;;;;;5052535;28;20027;-72
2022/01/27 12:55:05;;;;;;;15.68;7.55;;;3.70;99.90;;;;;;5052815;28;20020;-74
2022/01/27 12:57:32;;;;;;;15.38;6.97;;;3.80;99.90;;;;;;5052986;28;20146;-73
2022/01/27 13:00:00;;;;;;;13.98;6.65;;;3.80;99.90;;;;;;5068256;28;20020;-71
2022/01/27 13:02:28;;;;;;;15.07;7.32;;;3.90;99.90;;;;;;5052394;28;20021;-71
2022/01/27 13:04:58;;;;;;;15.70;7.35;;;3.80;99.90;;;;;;5052525;28;20495;-75
2022/01/27 13:07:25;;;;;;;16.42;6.50;;;3.80;99.90;;;;;;5052407;28;20509;-71
2022/01/27 13:10:06;;;;;;;12.13;5.70;;;3.80;99.90;;;;;;5052395;28;20021;-72
2022/01/27 13:12:39;;;;;;;14.68;6.03;;;3.90;99.90;;;;;;5053109;28;20024;-72
2022/01/27 13:15:08;;;;;;;12.93;6.13;;;3.90;99.90;;;;;;5053057;28;20013;-71
2022/01/27 13:17:43;;;;;;;14.45;6.70;;;3.90;99.90;;;;;;5068290;28;20017;-70
2022/01/27 13:20:12;;;;;;;15.57;7.32;;;3.90;99.90;;;;;;5052736;28;20531;-70
2022/01/27 13:22:51;;;;;;;12.13;5.43;;;3.90;99.90;;;;;;5052626;28;20032;-72
2022/01/27 13:25:19;;;;;;;14.10;6.55;;;3.90;99.90;;;;;;5067948;28;20029;-73
2022/01/27 13:28:00;;;;;;;14.60;7.22;;;4.00;99.90;;;;;;5052253;28;20100;-73
2022/01/27 13:30:26;;;;;;;15.93;6.35;;;4.10;99.90;;;;;;5049544;28;20110;-73
2022/01/27 13:32:52;;;;;;;15.27;6.45;;;4.20;99.90;;;;;;5067573;28;20497;-73